createdAt,value
2022-11-23T00:01:35.919Z,95336.72
2022-11-23T00:04:06.596Z,95338.75
2022-11-23T00:06:33.314Z,95329.69
2022-11-23T00:08:59.851Z,95332.28
2022-11-23T00:11:26.873Z,95319.03
2022-11-23T00:13:53.733Z,95330.91
2022-11-23T00:16:20.987Z,95345.56
2022-11-23T00:18:47.630Z,95334.50
2022-11-23T00:21:17.841Z,95337.94
2022-11-23T00:23:44.584Z,95349.41
2022-11-23T00:26:11.267Z,95348.81
2022-11-23T00:28:39.937Z,95335.53
2022-11-23T00:31:07.158Z,95340.38
2022-11-23T00:33:33.719Z,95348.41
2022-11-23T00:36:00.771Z,95349.59
2022-11-23T00:38:27.429Z,95343.97
2022-11-23T00:41:00.281Z,95347.22
2022-11-23T00:43:27.116Z,95347.03
2022-11-23T00:46:12.430Z,95345.03
2022-11-23T00:48:38.940Z,95358.88
2022-11-23T00:51:06.439Z,95355.25
2022-11-23T00:53:32.977Z,95351.25
2022-11-23T00:55:59.430Z,95349.84
2022-11-23T00:58:26.065Z,95353.63
2022-11-23T01:01:00.272Z,95343.78
2022-11-23T01:03:26.739Z,95355.25
2022-11-23T01:05:53.135Z,95351.03
2022-11-23T01:08:19.552Z,95347.41
2022-11-23T01:10:46.173Z,95353.28
2022-11-23T01:13:12.622Z,95354.88
2022-11-23T01:15:39.003Z,95358.88
2022-11-23T01:18:05.480Z,95361.88
2022-11-23T01:20:32.035Z,95357.66
2022-11-23T01:22:58.470Z,95361.06
2022-11-23T01:25:24.898Z,95353.06
2022-11-23T01:27:51.294Z,95373.19
2022-11-23T01:30:17.800Z,95363.34
2022-11-23T01:32:44.229Z,95375.41
2022-11-23T01:35:10.701Z,95378.81
2022-11-23T01:37:37.109Z,95372.78
2022-11-23T01:40:03.668Z,95384.25
2022-11-23T01:42:53.737Z,95386.25
2022-11-23T01:45:29.194Z,95383.00
2022-11-23T01:47:55.616Z,95385.00
2022-11-23T01:50:22.022Z,95383.06
2022-11-23T01:52:48.455Z,95390.47
2022-11-23T01:55:14.927Z,95383.44
2022-11-23T01:57:41.933Z,95388.63
2022-11-23T02:00:08.757Z,95395.88
2022-11-23T02:02:35.201Z,95393.09
2022-11-23T02:05:01.638Z,95390.69
2022-11-23T02:07:28.166Z,95393.50
2022-11-23T02:09:54.642Z,95398.31
2022-11-23T02:12:21.038Z,95394.47
2022-11-23T02:14:47.473Z,95390.84
2022-11-23T02:17:14.158Z,95398.88
2022-11-23T02:19:43.796Z,95408.19
2022-11-23T02:22:12.018Z,95397.53
2022-11-23T02:24:40.343Z,95400.94
2022-11-23T02:27:07.873Z,95406.97
2022-11-23T02:29:34.709Z,95393.09
2022-11-23T02:32:01.231Z,95398.13
2022-11-23T02:48:22.057Z,95403.16
2022-11-23T02:50:48.492Z,95407.78
2022-11-23T02:53:15.136Z,95408.59
2022-11-23T02:55:41.605Z,95401.56
2022-11-23T02:58:08.024Z,95406.38
2022-11-23T03:00:34.535Z,95407.59
2022-11-23T03:03:01.325Z,95412.00
2022-11-23T03:05:27.851Z,95402.56
2022-11-23T03:07:54.282Z,95404.41
2022-11-23T03:10:20.847Z,95408.22
2022-11-23T03:12:47.351Z,95412.03
2022-11-23T03:15:13.795Z,95410.63
2022-11-23T03:17:40.213Z,95399.94
2022-11-23T03:20:06.997Z,95410.03
2022-11-23T03:22:33.987Z,95403.16
2022-11-23T03:25:00.444Z,95406.19
2022-11-23T03:27:26.863Z,95401.94
2022-11-23T03:29:53.336Z,95410.78
2022-11-23T03:32:19.787Z,95401.16
2022-11-23T03:34:46.264Z,95399.94
2022-11-23T03:37:12.790Z,95404.00
2022-11-23T03:39:41.715Z,95400.75
2022-11-23T03:42:12.312Z,95402.38
2022-11-23T03:44:38.767Z,95408.41
2022-11-23T03:47:05.239Z,95403.38
2022-11-23T03:49:31.889Z,95401.16
2022-11-23T03:51:58.538Z,95412.22
2022-11-23T03:54:24.971Z,95399.97
2022-11-23T03:56:51.908Z,95405.38
2022-11-23T03:59:18.354Z,95403.56
2022-11-23T04:01:44.790Z,95399.16
2022-11-23T04:04:11.269Z,95408.00
2022-11-23T04:06:37.714Z,95401.94
2022-11-23T04:09:04.167Z,95412.81
2022-11-23T04:11:32.536Z,95411.22
2022-11-23T04:13:58.969Z,95414.00
2022-11-23T04:16:25.415Z,95420.25
2022-11-23T04:18:51.827Z,95411.22
2022-11-23T04:21:18.267Z,95405.16
2022-11-23T04:23:44.638Z,95403.56
2022-11-23T04:26:11.131Z,95403.56
2022-11-23T04:28:37.553Z,95405.94
2022-11-23T04:31:04.005Z,95401.31
2022-11-23T04:33:31.723Z,95401.94
2022-11-23T04:35:58.376Z,95399.69
2022-11-23T04:38:24.827Z,95402.94
2022-11-23T04:40:51.308Z,95398.75
2022-11-23T04:43:17.734Z,95409.78
2022-11-23T04:45:44.730Z,95407.59
2022-11-23T04:48:11.184Z,95412.00
2022-11-23T04:50:40.365Z,95410.00
2022-11-23T04:53:07.130Z,95415.22
2022-11-23T04:55:33.784Z,95408.75
2022-11-23T04:58:00.261Z,95410.97
2022-11-23T05:00:26.939Z,95412.75
2022-11-23T05:02:53.386Z,95408.78
2022-11-23T05:05:19.905Z,95416.03
2022-11-23T05:07:46.380Z,95406.38
2022-11-23T05:10:12.902Z,95420.06
2022-11-23T05:12:39.360Z,95420.66
2022-11-23T05:15:06.068Z,95419.06
2022-11-23T05:17:33.712Z,95422.50
2022-11-23T05:20:00.148Z,95418.84
2022-11-23T05:22:26.588Z,95423.66
2022-11-23T05:24:53.002Z,95413.41
2022-11-23T05:27:19.451Z,95417.59
2022-11-23T05:29:45.909Z,95425.00
2022-11-23T05:32:12.392Z,95422.22
2022-11-23T05:34:38.827Z,95424.84
2022-11-23T05:37:05.427Z,95419.25
2022-11-23T05:39:32.148Z,95426.22
2022-11-23T05:41:58.784Z,95436.28
2022-11-23T05:44:25.205Z,95430.25
2022-11-23T05:46:51.665Z,95435.28
2022-11-23T05:49:18.049Z,95427.22
2022-11-23T05:51:44.585Z,95433.06
2022-11-23T05:54:11.080Z,95438.69
2022-11-23T05:56:40.305Z,95437.69
2022-11-23T05:59:08.054Z,95446.34
2022-11-23T06:01:34.554Z,95438.09
2022-11-23T06:04:01.068Z,95440.47
2022-11-23T06:06:27.549Z,95430.03
2022-11-23T06:08:53.946Z,95433.69
2022-11-23T06:11:20.429Z,95433.69
2022-11-23T06:13:47.803Z,95440.50
2022-11-23T06:16:14.230Z,95440.47
2022-11-23T06:18:40.681Z,95441.69
2022-11-23T06:21:07.159Z,95446.34
2022-11-23T06:23:33.581Z,95434.66
2022-11-23T06:26:00.494Z,95441.09
2022-11-23T06:28:28.910Z,95430.63
2022-11-23T06:30:55.807Z,95442.13
2022-11-23T06:33:22.321Z,95434.06
2022-11-23T06:35:52.790Z,95432.69
2022-11-23T06:38:19.274Z,95441.72
2022-11-23T06:40:45.669Z,95443.31
2022-11-23T06:43:12.101Z,95442.31
2022-11-23T06:45:38.556Z,95441.69
2022-11-23T06:48:05.277Z,95463.41
2022-11-23T06:50:31.744Z,95450.97
2022-11-23T06:52:58.362Z,95448.16
2022-11-23T06:55:25.078Z,95446.72
2022-11-23T06:57:51.555Z,95444.13
2022-11-23T07:00:18.554Z,95459.81
2022-11-23T07:02:44.994Z,95455.38
2022-11-23T07:05:11.458Z,95466.63
2022-11-23T07:07:37.935Z,95466.75
2022-11-23T07:10:07.269Z,95473.03
2022-11-23T07:12:33.963Z,95471.63
2022-11-23T07:15:00.458Z,95475.38
2022-11-23T07:17:26.919Z,95460.47
2022-11-23T07:19:53.368Z,95471.66
2022-11-23T07:22:19.844Z,95473.22
2022-11-23T07:24:47.008Z,95471.00
2022-11-23T07:27:13.655Z,95474.31
2022-11-23T07:29:40.095Z,95474.69
2022-11-23T07:32:08.544Z,95472.94
2022-11-23T07:34:35.002Z,95475.72
2022-11-23T07:37:02.341Z,95477.53
2022-11-23T07:39:54.981Z,95471.28
2022-11-23T07:42:32.312Z,95477.63
2022-11-23T07:45:01.259Z,95478.69
2022-11-23T07:47:27.720Z,95482.28
2022-11-23T07:49:54.232Z,95488.38
2022-11-23T07:52:20.642Z,95496.78
2022-11-23T07:54:47.099Z,95497.69
2022-11-23T07:57:13.545Z,95490.84
2022-11-23T07:59:39.975Z,95486.47
2022-11-23T08:02:06.745Z,95487.25
2022-11-23T08:04:33.460Z,95500.94
2022-11-23T08:07:00.851Z,95500.75
2022-11-23T08:09:27.316Z,95506.53
2022-11-23T08:11:53.741Z,95499.31
2022-11-23T08:14:20.233Z,95503.38
2022-11-23T08:16:50.922Z,95506.22
2022-11-23T08:19:17.502Z,95515.72
2022-11-23T08:21:44.591Z,95510.94
2022-11-23T08:24:11.292Z,95508.72
2022-11-23T08:26:37.755Z,95515.06
2022-11-23T08:29:04.599Z,95513.75
2022-11-23T08:31:31.245Z,95508.56
2022-11-23T08:34:03.024Z,95515.91
2022-11-23T08:36:30.059Z,95512.69
2022-11-23T08:38:56.498Z,95516.84
2022-11-23T08:41:22.931Z,95517.34
2022-11-23T08:43:49.544Z,95526.97
2022-11-23T08:46:16.051Z,95520.50
2022-11-23T08:48:42.666Z,95524.13
2022-11-23T08:51:09.469Z,95527.75
2022-11-23T08:53:36.204Z,95522.44
2022-11-23T08:56:03.467Z,95522.91
2022-11-23T08:58:29.965Z,95530.25
2022-11-23T09:00:56.383Z,95518.81
2022-11-23T09:03:22.830Z,95521.41
2022-11-23T09:05:51.105Z,95518.53
2022-11-23T09:08:17.878Z,95509.41
2022-11-23T09:10:44.310Z,95518.44
2022-11-23T09:13:10.827Z,95529.25
2022-11-23T09:15:37.257Z,95523.25
2022-11-23T09:18:03.747Z,95537.22
2022-11-23T09:20:30.747Z,95527.31
2022-11-23T09:22:57.205Z,95533.94
2022-11-23T09:25:23.887Z,95530.56
2022-11-23T09:27:51.637Z,95523.50
2022-11-23T09:30:18.191Z,95533.59
2022-11-23T09:32:44.647Z,95533.81
2022-11-23T09:35:11.130Z,95538.50
2022-11-23T09:37:37.611Z,95542.91
2022-11-23T09:40:04.404Z,95534.13
2022-11-23T09:42:49.760Z,95533.81
2022-11-23T09:45:21.604Z,95524.97
2022-11-23T09:47:54.343Z,95535.31
2022-11-23T09:50:24.211Z,95526.88
2022-11-23T09:52:50.645Z,95528.03
2022-11-23T09:55:22.357Z,95526.06
2022-11-23T09:57:48.822Z,95526.59
2022-11-23T10:00:24.610Z,95525.38
2022-11-23T10:02:51.049Z,95526.72
2022-11-23T10:05:19.071Z,95537.91
2022-11-23T10:08:08.792Z,95535.50
2022-11-23T10:10:41.296Z,95531.44
2022-11-23T10:13:15.852Z,95523.41
2022-11-23T10:15:45.599Z,95519.75
2022-11-23T10:18:27.334Z,95533.66
2022-11-23T10:21:20.245Z,95531.53
2022-11-23T10:23:52.505Z,95535.56
2022-11-23T10:26:20.000Z,95545.78
2022-11-23T10:28:46.890Z,95538.72
2022-11-23T10:31:16.739Z,95532.47
2022-11-23T10:33:52.329Z,95535.31
2022-11-23T10:36:18.787Z,95533.53
2022-11-23T10:38:45.373Z,95534.56
2022-11-23T10:41:13.170Z,95527.91
2022-11-23T10:43:55.076Z,95546.28
2022-11-23T10:46:29.458Z,95540.88
2022-11-23T10:48:56.100Z,95545.34
2022-11-23T10:51:32.833Z,95544.56
2022-11-23T10:54:05.471Z,95547.78
2022-11-23T10:56:32.438Z,95543.34
2022-11-23T10:58:58.939Z,95549.81
2022-11-23T11:01:26.415Z,95548.41
2022-11-23T11:03:53.618Z,95575.22
2022-11-23T11:06:24.770Z,95553.84
2022-11-23T11:09:00.445Z,95539.72
2022-11-23T11:11:33.073Z,95542.16
2022-11-23T11:14:05.577Z,95549.38
2022-11-23T11:16:38.343Z,95531.22
2022-11-23T11:19:25.797Z,95529.00
2022-11-23T11:21:52.306Z,95522.97
2022-11-23T11:24:20.954Z,95521.78
2022-11-23T11:26:48.798Z,95520.34
2022-11-23T11:29:24.673Z,95508.28
2022-11-23T11:31:57.309Z,95501.41
2022-11-23T11:34:35.767Z,95503.00
2022-11-23T11:37:20.976Z,95481.66
2022-11-23T11:40:06.198Z,95476.78
2022-11-23T11:42:52.692Z,95482.44
2022-11-23T11:45:26.210Z,95490.09
2022-11-23T11:48:13.560Z,95488.44
2022-11-23T11:50:46.043Z,95490.47
2022-11-23T11:53:13.753Z,95489.72
2022-11-23T11:55:59.074Z,95482.03
2022-11-23T11:58:27.929Z,95473.97
2022-11-23T12:00:58.085Z,95461.88
2022-11-23T12:03:34.641Z,95455.84
2022-11-23T12:06:06.024Z,95453.81
2022-11-23T12:08:37.853Z,95461.66
2022-11-23T12:11:05.826Z,95468.53
2022-11-23T12:13:33.094Z,95466.31
2022-11-23T12:16:02.609Z,95460.69
2022-11-23T12:18:32.326Z,95451.38
2022-11-23T12:21:14.118Z,95452.41
2022-11-23T12:23:52.756Z,95448.19
2022-11-23T12:26:24.528Z,95454.22
2022-11-23T12:29:25.307Z,95445.38
2022-11-23T12:31:54.259Z,95457.25
2022-11-23T12:34:33.332Z,95445.75
2022-11-23T12:36:59.919Z,95456.22
2022-11-23T12:39:26.307Z,95457.84
2022-11-23T12:41:58.877Z,95470.94
2022-11-23T12:44:37.466Z,95464.69
2022-11-23T12:47:08.381Z,95449.38
2022-11-23T12:49:44.362Z,95451.81
2022-11-23T12:52:23.085Z,95445.38
2022-11-23T12:54:58.641Z,95454.03
2022-11-23T12:57:26.909Z,95444.34
2022-11-23T13:00:04.882Z,95445.31
2022-11-23T13:02:50.313Z,95464.28
2022-11-23T13:05:28.971Z,95457.00
2022-11-23T13:07:58.440Z,95449.75
2022-11-23T13:10:36.402Z,95452.63
2022-11-23T13:13:07.811Z,95447.38
2022-11-23T13:15:56.810Z,95461.69
2022-11-23T13:18:32.600Z,95454.63
2022-11-23T13:21:25.447Z,95458.44
2022-11-23T13:23:51.893Z,95448.00
2022-11-23T13:26:22.275Z,95442.13
2022-11-23T13:28:49.451Z,95448.16
2022-11-23T13:31:16.349Z,95445.78
2022-11-23T13:33:43.769Z,95443.13
2022-11-23T13:36:16.671Z,95436.47
2022-11-23T13:38:46.138Z,95438.88
2022-11-23T13:41:33.706Z,95439.09
2022-11-23T13:44:18.617Z,95446.16
2022-11-23T13:46:45.352Z,95435.69
2022-11-23T13:49:29.198Z,95421.97
2022-11-23T13:52:05.954Z,95411.09
2022-11-23T13:54:32.726Z,95396.78
2022-11-23T13:57:01.149Z,95403.84
2022-11-23T13:59:31.474Z,95403.81
2022-11-23T14:02:01.109Z,95399.00
2022-11-23T14:04:31.826Z,95388.13
2022-11-23T14:07:12.783Z,95387.31
2022-11-23T14:09:42.908Z,95387.88
2022-11-23T14:12:14.860Z,95374.41
2022-11-23T14:14:49.786Z,95376.59
2022-11-23T14:17:16.193Z,95380.22
2022-11-23T14:20:01.354Z,95379.63
2022-11-23T14:22:30.897Z,95377.00
2022-11-23T14:24:57.321Z,95374.38
2022-11-23T14:27:47.962Z,95396.94
2022-11-23T14:30:20.834Z,95400.16
2022-11-23T14:32:53.472Z,95394.13
2022-11-23T14:35:40.757Z,95395.09
2022-11-23T14:38:13.589Z,95406.97
2022-11-23T14:40:46.281Z,95395.28
2022-11-23T14:43:13.355Z,95402.34
2022-11-23T14:45:39.931Z,95403.75
2022-11-23T14:48:25.190Z,95404.19
2022-11-23T14:50:56.255Z,95403.78
2022-11-23T14:53:23.325Z,95419.50
2022-11-23T14:55:49.782Z,95415.22
2022-11-23T14:58:16.188Z,95417.84
2022-11-23T15:00:43.792Z,95421.25
2022-11-23T15:03:48.706Z,95416.00
2022-11-23T15:06:10.641Z,95408.94
2022-11-23T15:08:43.152Z,95410.53
2022-11-23T15:11:21.248Z,95415.75
2022-11-23T15:13:48.931Z,95413.53
2022-11-23T15:16:16.453Z,95406.91
2022-11-23T15:18:43.203Z,95408.88
2022-11-23T15:21:09.605Z,95409.88
2022-11-23T15:23:37.104Z,95416.31
2022-11-23T15:26:05.258Z,95416.91
2022-11-23T15:28:33.129Z,95423.94
2022-11-23T15:30:59.585Z,95431.34
2022-11-23T15:33:26.314Z,95422.09
2022-11-23T15:35:53.303Z,95417.28
2022-11-23T15:38:23.616Z,95414.09
2022-11-23T15:40:50.719Z,95416.91
2022-11-23T15:43:18.298Z,95424.97
2022-11-23T15:45:58.842Z,95435.25
2022-11-23T15:48:29.682Z,95440.66
2022-11-23T15:51:06.147Z,95434.22
2022-11-23T15:53:33.128Z,95438.41
2022-11-23T15:56:00.808Z,95437.78
2022-11-23T15:58:27.243Z,95439.78
2022-11-23T16:00:55.160Z,95437.75
2022-11-23T16:03:32.498Z,95443.22
2022-11-23T16:06:11.207Z,95450.66
2022-11-23T16:08:37.742Z,95453.06
2022-11-23T16:11:04.704Z,95462.00
2022-11-23T16:13:35.159Z,95465.44
2022-11-23T16:16:01.658Z,95469.25
2022-11-23T16:18:28.077Z,95458.78
2022-11-23T16:20:55.500Z,95468.91
2022-11-23T16:23:25.968Z,95464.47
2022-11-23T16:25:57.260Z,95466.88
2022-11-23T16:28:27.208Z,95461.88
2022-11-23T16:30:53.716Z,95466.09
2022-11-23T16:33:20.529Z,95469.72
2022-11-23T16:35:47.297Z,95472.13
2022-11-23T16:38:13.816Z,95480.13
2022-11-23T16:40:40.735Z,95480.16
2022-11-23T16:43:07.730Z,95491.59
2022-11-23T16:45:34.222Z,95499.22
2022-11-23T16:48:01.916Z,95499.00
2022-11-23T16:50:29.467Z,95503.38
2022-11-23T16:52:56.065Z,95510.16
2022-11-23T16:55:22.532Z,95510.66
2022-11-23T16:57:49.083Z,95516.06
2022-11-23T17:00:19.748Z,95506.34
2022-11-23T17:02:46.313Z,95514.94
2022-11-23T17:05:16.622Z,95518.34
2022-11-23T17:07:43.290Z,95514.72
2022-11-23T17:10:10.307Z,95521.19
2022-11-23T17:12:37.114Z,95521.38
2022-11-23T17:15:03.868Z,95526.78
2022-11-23T17:17:30.352Z,95520.94
2022-11-23T17:20:02.488Z,95540.19
2022-11-23T17:22:30.477Z,95523.72
2022-11-23T17:24:56.924Z,95530.00
2022-11-23T17:27:24.165Z,95534.88
2022-11-23T17:30:00.334Z,95538.47
2022-11-23T17:32:26.915Z,95548.53
2022-11-23T17:34:53.584Z,95548.16
2022-11-23T17:37:21.392Z,95559.00
2022-11-23T17:39:48.243Z,95561.84
2022-11-23T17:42:14.808Z,95571.91
2022-11-23T17:44:41.346Z,95570.94
2022-11-23T17:47:08.146Z,95583.56
2022-11-23T17:49:35.062Z,95588.38
2022-11-23T17:52:01.649Z,95590.13
2022-11-23T17:54:28.073Z,95580.28
2022-11-23T17:56:54.497Z,95574.97
2022-11-23T17:59:20.938Z,95577.44
2022-11-23T18:01:47.866Z,95574.81
2022-11-23T18:04:14.375Z,95569.34
2022-11-23T18:06:40.844Z,95585.00
2022-11-23T18:09:07.411Z,95589.00
2022-11-23T18:11:33.853Z,95590.44
2022-11-23T18:14:00.328Z,95603.50
2022-11-23T18:16:26.918Z,95624.41
2022-11-23T18:18:53.519Z,95640.19
2022-11-23T18:21:19.924Z,95636.25
2022-11-23T18:23:46.398Z,95639.91
2022-11-23T18:26:14.690Z,95643.81
2022-11-23T18:28:41.093Z,95644.72
2022-11-23T18:31:07.952Z,95658.31
2022-11-23T18:33:34.652Z,95650.22
2022-11-23T18:36:05.319Z,95658.50
2022-11-23T18:38:32.500Z,95653.84
2022-11-23T18:40:58.887Z,95652.91
2022-11-23T18:43:25.381Z,95661.28
2022-11-23T18:45:51.782Z,95658.25
2022-11-23T18:48:18.244Z,95657.25
2022-11-23T18:50:44.766Z,95658.88
2022-11-23T18:53:11.558Z,95661.66
2022-11-23T18:55:38.025Z,95661.47
2022-11-23T18:58:04.482Z,95664.09
2022-11-23T19:00:30.909Z,95658.88
2022-11-23T19:02:58.235Z,95670.56
2022-11-23T19:05:25.321Z,95684.59
2022-11-23T19:07:51.858Z,95690.75
2022-11-23T19:10:18.737Z,95687.31
2022-11-23T19:12:45.287Z,95689.94
